Powderhorn, CO

10:28 PM MST on February 24, 2017 (GMT -0700)
| | Change Station

Elev -9999 ft 0.00 °N, 0.00 °E | Updated 9 minutes ago

Overcast
Overcast
°F
Feels Like °F
N
Wind Variable Wind from North
Gusts mph

Today
High -- | Low -- °F
--% Chance of Precip.
Yesterday
High -- | Low -- °F
Precip. -- in
Pressure 30.29 in
Visibility 5.0 miles
Clouds Few 1400 ft
Scattered Clouds 2100 ft
Mostly Cloudy 3200 ft
Dew Point Not available.
Humidity Not available.
Rainfall --
Snow Depth Not available.
6:46 AM 5:56 PM
Waning Crescent, 2% visible
METAR KGUC 250456Z AUTO 00000KT 5SM -SN FEW014 SCT021 BKN032 M11/M13 A3001 RMK AO2 SNB03 SLP255 P0000 T11061133 FZRANO
Pressure 30.29 in
Visibility 5.0 miles
Clouds Few 1400 ft
Scattered Clouds 2100 ft
Mostly Cloudy 3200 ft
Dew Point Not available.
Humidity Not available.
Rainfall --
Snow Depth Not available.
6:46 AM 5:56 PM
Waning Crescent, 2% visible
METAR KGUC 250456Z AUTO 00000KT 5SM -SN FEW014 SCT021 BKN032 M11/M13 A3001 RMK AO2 SNB03 SLP255 P0000 T11061133 FZRANO

Get Your Daily Forecast Email!

Thanks for signing up!

Be on the lookout for a verification email in your inbox.

You'll start receiving the daily forecast at 8 AM.

×

10-Day Weather Forecast

Almanac

Astronomy

Feb. 24, 2017 Rise Set
Actual Time
Civil Twilight
Nautical Twilight
Astronomical Twilight
Moon
Length of Visible Light
Length of Day
Tomorrow will be .
, % of the Moon is Illuminated

Today's Extremes

State Highs State Lows

Community

WunderPhotos

Upload Photos

1,962,540 photos uploaded!

WunderBlog® & News

Nearby

Air Quality

  Air Quality AQ Index Pollutant
Not available.

Snow Depth

Station Depth Elevation

Earthquake Activity

City Distance Mag. Time & Date
Minimum magnitude displayed is 2.5.

Coastal Water Temperatures

Place Temperature

Stations

Nearby Weather Stations

Station Location Temp. Windchill Dew Point Humidity Wind Precip. Elev Updated Type
                   

Watches & Warnings

There are currently no watches in effect.